Terminal Aerodrome Forecast
Issued by NWS St Louis, MO

Home | Current Version | Previous Version | Text Only | Print | Product List | Glossary On
Versions: 1 2 3 4 5 6 7 8 9 10 11 12 13 14 15 16 17 18 19 20 21 22 23 24 25 26 27 28 29 30 31 32 33 34 35 36 37 38 39 40 41 42 43 44 45 46 47 48 49 50
000
FTUS43 KLSX 171730
TAFSTL
TAF
KSTL 171730Z 1718/1824 32006KT 2SM BR OVC002
     FM172100 32006KT 5SM BR OVC009
     FM180900 VRB03KT 2SM BR OVC007
     FM181100 VRB03KT 3/4SM BR OVC005
     FM181400 VRB03KT 1SM BR OVC005
     FM181800 12007KT P6SM OVC007=

USA.gov is the U.S. government's official web portal to all federal, state and local government web resources and services.